Time;durP1;ratioP1;P1;durP2;ratioP2;P2;SDS_P1;SDS_P2;PMS_P1;PMS_P2;Temp;Humidity;BMP_temperature;BMP_pressure;BME280_temperature;BME280_humidity;BME280_pressure;Samples;Min_cycle;Max_cycle;Signal;HPM_P1;HPM_P2
2023/04/07 00:00:41;;;;;;;13.18;10.20;;;-1.00;99.90;;;;;;5051222;28;20102;-52
2023/04/07 00:03:07;;;;;;;15.05;10.48;;;-1.00;99.90;;;;;;5050989;28;20021;-50
2023/04/07 00:05:33;;;;;;;21.40;11.30;;;-1.00;99.90;;;;;;5051117;28;20029;-50
2023/04/07 00:07:59;;;;;;;24.10;11.05;;;-1.10;99.90;;;;;;5050718;28;20017;-53
2023/04/07 00:10:24;;;;;;;14.32;9.98;;;-1.20;99.90;;;;;;5051053;28;20460;-50
2023/04/07 00:12:50;;;;;;;14.05;9.80;;;-1.20;99.90;;;;;;5050925;28;20431;-50
2023/04/07 00:15:16;;;;;;;18.73;10.55;;;-1.10;99.90;;;;;;5050804;28;20013;-52
2023/04/07 00:17:42;;;;;;;15.93;10.10;;;-1.20;99.90;;;;;;5051071;28;20044;-50
2023/04/07 00:20:07;;;;;;;15.60;10.63;;;-1.20;99.90;;;;;;5050706;28;20113;-53
2023/04/07 00:22:33;;;;;;;13.48;10.25;;;-1.20;99.90;;;;;;5050942;28;20025;-55
2023/04/07 00:24:59;;;;;;;14.13;11.10;;;-1.30;99.90;;;;;;5050768;28;20021;-53
2023/04/07 00:27:25;;;;;;;14.23;10.82;;;-1.40;99.90;;;;;;5050803;28;20025;-49
2023/04/07 00:29:53;;;;;;;17.60;10.68;;;-1.50;99.90;;;;;;5050718;28;20064;-55
2023/04/07 00:32:19;;;;;;;19.38;10.25;;;-1.40;1.00;;;;;;5051125;28;20151;-56
2023/04/07 00:34:45;;;;;;;14.50;9.90;;;-1.50;1.00;;;;;;5050905;28;20442;-54
2023/04/07 00:37:10;;;;;;;19.08;10.38;;;-1.40;1.00;;;;;;5050518;28;20476;-55
2023/04/07 00:39:36;;;;;;;16.55;10.10;;;-1.40;1.00;;;;;;5050829;28;20025;-54
2023/04/07 00:42:04;;;;;;;11.90;10.15;;;-1.40;1.00;;;;;;5050523;28;20056;-52
2023/04/07 00:44:30;;;;;;;18.30;10.27;;;-1.40;1.00;;;;;;5053695;28;20013;-52
2023/04/07 00:46:56;;;;;;;13.77;10.75;;;-1.40;1.00;;;;;;5054023;28;20028;-49
2023/04/07 00:49:21;;;;;;;15.75;10.57;;;-1.40;98.00;;;;;;5052758;28;20032;-51
2023/04/07 00:51:47;;;;;;;16.90;10.00;;;-1.50;99.90;;;;;;5054133;28;20029;-51
2023/04/07 00:54:13;;;;;;;14.30;10.02;;;-1.50;68.90;;;;;;5053715;28;20029;-50
2023/04/07 00:56:39;;;;;;;21.98;10.95;;;-1.40;1.00;;;;;;5054045;28;20032;-52
2023/04/07 00:59:05;;;;;;;14.43;10.20;;;-1.40;1.00;;;;;;5053700;28;20021;-55
2023/04/07 01:01:38;;;;;;;15.52;9.63;;;-1.40;99.60;;;;;;5054000;28;20029;-52
2023/04/07 01:04:08;;;;;;;16.45;11.43;;;-1.50;99.90;;;;;;5053694;28;20419;-54
2023/04/07 01:06:39;;;;;;;14.68;10.32;;;-1.40;99.90;;;;;;5054015;28;20052;-51
2023/04/07 01:09:13;;;;;;;14.45;11.30;;;-1.40;99.90;;;;;;5053476;28;20361;-50
2023/04/07 01:12:02;;;;;;;13.82;10.25;;;-1.50;99.90;;;;;;5053421;28;20036;-55
2023/04/07 01:14:37;;;;;;;12.77;9.57;;;-1.60;99.90;;;;;;5052463;28;20041;-54
2023/04/07 01:17:04;;;;;;;12.38;10.45;;;-1.70;1.00;;;;;;5051143;28;20021;-50
2023/04/07 01:19:33;;;;;;;13.23;10.30;;;-1.80;99.90;;;;;;5052444;28;20013;-54
2023/04/07 01:21:59;;;;;;;14.25;11.05;;;-1.80;99.90;;;;;;5052174;28;20025;-51
2023/04/07 01:24:56;;;;;;;15.60;12.15;;;-1.80;99.90;;;;;;5051167;28;20104;-49
2023/04/07 01:27:31;;;;;;;14.98;10.85;;;-1.80;99.90;;;;;;5052338;28;20028;-56
2023/04/07 01:29:59;;;;;;;14.52;10.30;;;-1.80;99.90;;;;;;5052071;28;20083;-50
2023/04/07 01:32:26;;;;;;;14.18;10.02;;;-1.70;99.90;;;;;;5052198;28;20075;-51
2023/04/07 01:34:54;;;;;;;16.05;10.35;;;-1.80;99.90;;;;;;5052312;28;20076;-52
2023/04/07 01:37:20;;;;;;;13.75;10.40;;;-1.70;99.90;;;;;;5052225;28;20031;-50
2023/04/07 01:39:46;;;;;;;17.23;10.77;;;-1.90;99.90;;;;;;5051958;28;20009;-56
2023/04/07 01:42:12;;;;;;;15.75;10.10;;;-1.90;99.90;;;;;;5051906;28;20074;-49
2023/04/07 01:44:39;;;;;;;15.27;10.73;;;-2.00;99.90;;;;;;5052104;28;20019;-50
2023/04/07 01:47:05;;;;;;;15.45;10.90;;;-1.90;99.90;;;;;;5051794;28;20086;-51
2023/04/07 01:49:32;;;;;;;15.93;11.95;;;-1.90;99.90;;;;;;5052234;28;20099;-52
2023/04/07 01:51:59;;;;;;;17.98;11.40;;;-2.00;99.90;;;;;;5051593;28;20024;-51
2023/04/07 01:54:26;;;;;;;18.10;10.45;;;-1.90;99.90;;;;;;5051748;28;20017;-53
2023/04/07 01:56:51;;;;;;;14.55;11.18;;;-1.90;99.90;;;;;;5051658;28;20057;-51
2023/04/07 01:59:17;;;;;;;16.08;11.23;;;-1.90;99.90;;;;;;5051871;28;20678;-55
2023/04/07 02:01:43;;;;;;;16.33;11.05;;;-1.90;99.90;;;;;;5051879;28;20045;-51
2023/04/07 02:04:11;;;;;;;15.00;11.10;;;-1.90;99.90;;;;;;5051590;28;20021;-50
2023/04/07 02:06:51;;;;;;;17.17;11.50;;;-1.90;99.90;;;;;;5051709;28;20021;-51
2023/04/07 02:09:20;;;;;;;17.83;11.52;;;-1.90;99.90;;;;;;5049913;28;20036;-54
2023/04/07 02:11:48;;;;;;;14.73;10.98;;;-2.00;99.90;;;;;;5051506;28;20017;-51
2023/04/07 02:14:16;;;;;;;16.42;12.25;;;-2.00;99.90;;;;;;5051087;28;20124;-52
2023/04/07 02:16:42;;;;;;;21.17;11.88;;;-2.10;99.90;;;;;;5051558;28;20047;-52
2023/04/07 02:19:08;;;;;;;21.73;12.57;;;-2.10;99.90;;;;;;5051595;28;20057;-52
2023/04/07 02:21:34;;;;;;;18.25;12.10;;;-2.10;99.90;;;;;;5051364;28;20029;-51
2023/04/07 02:24:01;;;;;;;13.93;11.45;;;-2.10;99.90;;;;;;5051100;28;20025;-50
2023/04/07 02:26:27;;;;;;;13.30;10.32;;;-2.00;99.90;;;;;;5051272;28;20036;-53
2023/04/07 02:28:52;;;;;;;14.05;11.05;;;-2.10;99.90;;;;;;5051147;28;20391;-54
2023/04/07 02:31:18;;;;;;;17.40;11.45;;;-2.10;99.90;;;;;;5050935;28;20021;-53
2023/04/07 02:33:44;;;;;;;15.57;11.60;;;-2.00;99.90;;;;;;5051271;28;20040;-54
2023/04/07 02:36:09;;;;;;;14.45;11.35;;;-2.10;99.90;;;;;;5049600;28;20025;-51
2023/04/07 02:38:36;;;;;;;16.75;11.82;;;-2.00;99.90;;;;;;5050966;28;20074;-51
2023/04/07 02:41:02;;;;;;;18.02;11.05;;;-2.10;99.90;;;;;;5049565;28;20029;-54
2023/04/07 02:43:28;;;;;;;18.30;11.70;;;-2.10;99.90;;;;;;5050805;28;20040;-53
2023/04/07 02:45:53;;;;;;;20.55;11.10;;;-2.10;99.90;;;;;;5050923;28;20400;-57
2023/04/07 02:48:20;;;;;;;13.98;10.40;;;-2.10;99.90;;;;;;5050888;28;20047;-56
2023/04/07 02:50:46;;;;;;;21.83;12.55;;;-2.10;99.90;;;;;;5050786;28;20032;-53
2023/04/07 02:53:11;;;;;;;14.50;10.75;;;-2.20;99.90;;;;;;5049319;28;20033;-52
2023/04/07 02:55:37;;;;;;;18.98;11.73;;;-2.10;99.90;;;;;;5050657;28;20216;-50
2023/04/07 02:58:03;;;;;;;18.60;11.52;;;-2.10;99.90;;;;;;5050570;28;20025;-53
2023/04/07 03:00:28;;;;;;;16.48;11.40;;;-2.20;99.90;;;;;;5050716;28;20477;-50
2023/04/07 03:02:54;;;;;;;13.10;10.02;;;-2.20;99.90;;;;;;5050480;28;20037;-53
2023/04/07 03:05:19;;;;;;;19.42;12.70;;;-2.10;99.90;;;;;;5049972;28;20029;-55
2023/04/07 03:07:45;;;;;;;17.52;11.65;;;-2.20;99.90;;;;;;5050332;28;20059;-53
2023/04/07 03:10:11;;;;;;;13.80;11.25;;;-2.30;99.90;;;;;;5050216;28;20079;-52
2023/04/07 03:12:36;;;;;;;19.70;12.52;;;-2.30;99.90;;;;;;5050381;28;20116;-57
2023/04/07 03:15:02;;;;;;;15.57;11.35;;;-2.30;99.90;;;;;;5050250;28;20080;-48
2023/04/07 03:17:28;;;;;;;14.40;10.98;;;-2.30;99.90;;;;;;5050663;28;20515;-57
2023/04/07 03:19:54;;;;;;;21.58;12.93;;;-2.30;99.90;;;;;;5050237;28;20021;-54
2023/04/07 03:22:20;;;;;;;16.02;11.07;;;-2.20;99.90;;;;;;5050328;28;20086;-55
2023/04/07 03:24:46;;;;;;;15.07;10.68;;;-2.30;99.90;;;;;;5048674;28;20020;-55
2023/04/07 03:27:11;;;;;;;15.57;12.73;;;-2.30;99.90;;;;;;5050135;28;20029;-51
2023/04/07 03:29:37;;;;;;;16.70;12.23;;;-2.40;99.90;;;;;;5050229;28;20021;-55
2023/04/07 03:32:02;;;;;;;17.63;11.85;;;-2.40;99.90;;;;;;5050056;28;20490;-54
2023/04/07 03:34:28;;;;;;;19.33;13.50;;;-2.40;99.90;;;;;;5050603;28;20447;-52
2023/04/07 03:36:54;;;;;;;15.75;11.98;;;-2.40;99.90;;;;;;5048783;28;20044;-53
2023/04/07 03:39:20;;;;;;;14.77;11.40;;;-2.40;99.90;;;;;;5050026;28;20024;-57
2023/04/07 03:41:45;;;;;;;26.00;12.43;;;-2.40;99.90;;;;;;5050229;28;20025;-54
2023/04/07 03:44:11;;;;;;;20.48;11.93;;;-2.50;99.90;;;;;;5049932;28;20114;-55
2023/04/07 03:46:37;;;;;;;16.60;12.80;;;-2.50;99.90;;;;;;5050156;28;20028;-54
2023/04/07 03:49:02;;;;;;;23.02;13.43;;;-2.50;99.90;;;;;;5049750;28;20472;-56
2023/04/07 03:51:28;;;;;;;20.95;12.45;;;-2.40;99.90;;;;;;5050089;28;20023;-57
2023/04/07 03:53:53;;;;;;;18.05;12.60;;;-2.40;99.90;;;;;;5049680;28;20017;-54
2023/04/07 03:56:19;;;;;;;16.48;10.55;;;-2.50;99.90;;;;;;5050015;28;20464;-55
2023/04/07 03:58:45;;;;;;;16.58;11.55;;;-2.50;99.90;;;;;;5050135;28;20594;-55
2023/04/07 04:01:11;;;;;;;14.95;11.32;;;-2.40;99.90;;;;;;5049877;28;20048;-53
2023/04/07 04:03:37;;;;;;;17.23;11.10;;;-2.50;99.90;;;;;;5049806;28;20029;-54
2023/04/07 04:06:03;;;;;;;15.93;11.48;;;-2.50;99.90;;;;;;5049588;28;20094;-56
2023/04/07 04:08:30;;;;;;;19.70;12.50;;;-2.60;99.90;;;;;;5049787;28;20476;-55
2023/04/07 04:10:56;;;;;;;19.00;13.55;;;-2.50;99.90;;;;;;5049610;28;20017;-54
2023/04/07 04:13:21;;;;;;;20.48;13.02;;;-2.60;99.90;;;;;;5049407;28;20549;-55
2023/04/07 04:15:47;;;;;;;19.40;11.95;;;-2.60;99.90;;;;;;5049767;28;20064;-56
2023/04/07 04:18:12;;;;;;;18.67;11.40;;;-2.60;99.90;;;;;;5052393;28;20025;-55
2023/04/07 04:20:38;;;;;;;24.08;12.88;;;-2.60;99.90;;;;;;5053495;28;20099;-55
2023/04/07 04:23:04;;;;;;;16.10;12.15;;;-2.60;99.90;;;;;;5053012;28;20239;-54
2023/04/07 04:25:30;;;;;;;16.92;12.82;;;-2.60;99.90;;;;;;5052172;28;20025;-54
2023/04/07 04:27:55;;;;;;;19.95;11.73;;;-2.60;99.90;;;;;;5053290;28;20029;-55
2023/04/07 04:30:21;;;;;;;14.70;11.30;;;-2.60;99.90;;;;;;5051967;28;20033;-55
2023/04/07 04:32:47;;;;;;;16.75;12.20;;;-2.60;99.90;;;;;;5053235;28;20055;-55
2023/04/07 04:35:12;;;;;;;14.27;11.50;;;-2.60;99.90;;;;;;5052419;28;20025;-56
2023/04/07 04:37:38;;;;;;;25.70;12.18;;;-2.60;99.90;;;;;;5053381;28;20554;-55
2023/04/07 04:40:07;;;;;;;16.92;12.07;;;-2.60;99.90;;;;;;5052950;28;20032;-57
2023/04/07 04:42:33;;;;;;;16.88;12.18;;;-2.60;99.90;;;;;;5053344;28;20052;-54
2023/04/07 04:44:59;;;;;;;26.58;13.32;;;-2.60;99.90;;;;;;5053115;28;20071;-53
2023/04/07 04:47:24;;;;;;;25.88;14.82;;;-2.60;99.90;;;;;;5052968;28;20017;-56
2023/04/07 04:49:50;;;;;;;14.80;11.25;;;-2.50;99.90;;;;;;5053073;28;20036;-54
2023/04/07 04:52:16;;;;;;;13.43;10.82;;;-2.50;99.90;;;;;;5052579;28;20182;-57
2023/04/07 04:54:42;;;;;;;21.42;12.15;;;-2.60;99.90;;;;;;5052734;28;20013;-55
2023/04/07 04:57:07;;;;;;;19.13;13.35;;;-2.50;99.90;;;;;;5051299;28;20111;-50
2023/04/07 04:59:33;;;;;;;16.23;11.38;;;-2.50;99.90;;;;;;5052746;28;20027;-53
2023/04/07 05:01:59;;;;;;;20.98;11.57;;;-2.50;99.90;;;;;;5052670;28;20028;-50
2023/04/07 05:04:25;;;;;;;22.42;12.52;;;-2.50;99.90;;;;;;5052793;28;20027;-48
2023/04/07 05:06:50;;;;;;;16.25;12.52;;;-2.40;99.90;;;;;;5052375;28;20056;-52
2023/04/07 05:09:16;;;;;;;18.40;12.98;;;-2.40;99.90;;;;;;5052222;28;20060;-52
2023/04/07 05:11:42;;;;;;;20.20;12.02;;;-2.40;99.90;;;;;;5052518;28;20048;-52
2023/04/07 05:14:08;;;;;;;20.27;12.27;;;-2.30;99.90;;;;;;5052230;28;20071;-53
2023/04/07 05:16:34;;;;;;;20.00;12.02;;;-2.20;99.90;;;;;;5052676;28;20025;-54
2023/04/07 05:19:00;;;;;;;19.17;11.60;;;-2.20;99.90;;;;;;5052145;28;20021;-52
2023/04/07 05:21:26;;;;;;;15.45;12.10;;;-2.20;99.90;;;;;;5052219;28;20036;-53
2023/04/07 05:23:52;;;;;;;14.65;12.13;;;-2.10;99.90;;;;;;5052280;28;20122;-56
2023/04/07 05:26:18;;;;;;;16.02;12.38;;;-2.10;99.90;;;;;;5051794;28;20029;-50
2023/04/07 05:28:43;;;;;;;20.95;13.02;;;-2.00;99.90;;;;;;5051714;28;20032;-53
2023/04/07 05:31:09;;;;;;;17.55;13.05;;;-1.90;99.90;;;;;;5051644;28;20017;-57
2023/04/07 05:33:35;;;;;;;19.83;14.15;;;-1.90;99.90;;;;;;5052115;28;20024;-54
2023/04/07 05:36:01;;;;;;;18.45;13.13;;;-1.70;99.90;;;;;;5051864;28;20020;-52
2023/04/07 05:38:26;;;;;;;18.48;14.38;;;-1.50;99.90;;;;;;5051760;28;20055;-56
2023/04/07 05:40:52;;;;;;;24.13;13.70;;;-1.50;99.90;;;;;;5052040;28;20023;-51
2023/04/07 05:43:18;;;;;;;22.05;13.82;;;-1.40;99.90;;;;;;5051381;28;20041;-52
2023/04/07 05:45:43;;;;;;;16.75;13.80;;;-1.40;99.90;;;;;;5051654;28;20033;-50
2023/04/07 05:48:09;;;;;;;19.17;13.18;;;-1.30;99.90;;;;;;5051713;28;20484;-54
2023/04/07 05:50:35;;;;;;;17.45;13.35;;;-1.20;99.90;;;;;;5050643;28;20052;-55
2023/04/07 05:53:00;;;;;;;24.73;15.55;;;-1.00;99.90;;;;;;5051686;28;20086;-49
2023/04/07 05:55:26;;;;;;;22.20;15.13;;;-0.90;99.90;;;;;;5051727;28;20029;-55
2023/04/07 05:57:52;;;;;;;26.85;13.73;;;-0.80;99.90;;;;;;5051860;28;20042;-50
2023/04/07 06:00:18;;;;;;;26.98;14.05;;;-0.70;99.90;;;;;;5051575;28;20123;-54
2023/04/07 06:02:44;;;;;;;24.35;15.30;;;-0.50;99.90;;;;;;5051324;28;20384;-51
2023/04/07 06:05:10;;;;;;;23.23;16.33;;;-0.40;99.90;;;;;;5051396;28;20158;-54
2023/04/07 06:07:36;;;;;;;28.98;15.95;;;-0.20;99.90;;;;;;5051424;28;20067;-51
2023/04/07 06:10:01;;;;;;;18.48;12.82;;;0.00;99.90;;;;;;5051502;28;20025;-55
2023/04/07 06:12:27;;;;;;;21.35;14.45;;;0.10;99.90;;;;;;5051181;28;20095;-51
2023/04/07 06:14:54;;;;;;;19.30;13.35;;;0.00;99.90;;;;;;5051382;28;20498;-50
2023/04/07 06:17:20;;;;;;;19.30;13.25;;;0.00;99.90;;;;;;5051297;28;20053;-53
2023/04/07 06:19:46;;;;;;;19.30;13.13;;;0.00;99.90;;;;;;5051250;28;20048;-53
2023/04/07 06:22:11;;;;;;;17.73;12.10;;;0.20;99.90;;;;;;5050885;28;20078;-50
2023/04/07 06:24:37;;;;;;;17.75;13.02;;;0.30;99.90;;;;;;5049812;28;20009;-49
2023/04/07 06:27:03;;;;;;;16.88;12.75;;;0.50;99.90;;;;;;5050935;28;20039;-52
2023/04/07 06:29:29;;;;;;;19.92;13.35;;;0.60;99.90;;;;;;5050605;28;20028;-56
2023/04/07 06:31:55;;;;;;;19.08;14.32;;;0.80;99.90;;;;;;5051739;28;20392;-54
2023/04/07 06:34:21;;;;;;;15.60;12.75;;;1.00;99.90;;;;;;5051848;28;20017;-52
2023/04/07 06:36:47;;;;;;;20.05;11.63;;;1.20;99.90;;;;;;5052059;28;20028;-53
2023/04/07 06:39:12;;;;;;;25.73;12.40;;;1.30;99.90;;;;;;5052089;28;20094;-55
2023/04/07 06:41:38;;;;;;;15.27;12.25;;;1.50;99.90;;;;;;5050038;28;20025;-53
2023/04/07 06:44:04;;;;;;;15.85;10.77;;;1.60;99.90;;;;;;5049762;28;20021;-50
2023/04/07 06:46:29;;;;;;;18.10;13.73;;;1.70;99.90;;;;;;5050498;28;20025;-52
2023/04/07 06:48:55;;;;;;;15.55;11.38;;;1.80;99.90;;;;;;5049727;28;20029;-54
2023/04/07 06:51:21;;;;;;;18.27;12.07;;;2.10;99.90;;;;;;5050319;28;20049;-56
2023/04/07 06:53:49;;;;;;;26.33;11.70;;;2.30;99.90;;;;;;5050377;28;20457;-52
2023/04/07 06:56:15;;;;;;;15.75;11.68;;;2.40;99.90;;;;;;5050047;28;20388;-53
2023/04/07 06:58:41;;;;;;;15.18;11.52;;;2.60;99.90;;;;;;5050808;28;20025;-55
2023/04/07 07:01:06;;;;;;;36.85;19.17;;;2.80;99.90;;;;;;5050115;28;20036;-48
2023/04/07 07:03:32;;;;;;;32.72;17.55;;;2.90;99.90;;;;;;5050409;28;20017;-50
2023/04/07 07:05:59;;;;;;;35.55;18.95;;;3.00;99.90;;;;;;5049690;28;20029;-51
2023/04/07 07:08:27;;;;;;;19.88;13.05;;;3.10;99.90;;;;;;5050433;28;20028;-55
2023/04/07 07:10:52;;;;;;;19.17;13.52;;;3.30;99.90;;;;;;5050277;28;20025;-56
2023/04/07 07:13:22;;;;;;;15.85;11.70;;;3.50;99.90;;;;;;5049418;28;20098;-52
2023/04/07 07:15:48;;;;;;;17.33;12.88;;;3.70;99.90;;;;;;5048675;28;20057;-53
2023/04/07 07:18:14;;;;;;;18.35;11.50;;;3.90;99.90;;;;;;5049076;28;20056;-55
2023/04/07 07:20:39;;;;;;;18.10;11.45;;;4.10;99.90;;;;;;5050290;28;20040;-54
2023/04/07 07:23:05;;;;;;;16.42;12.00;;;4.30;99.90;;;;;;5049777;28;20504;-52
2023/04/07 07:25:31;;;;;;;17.00;12.07;;;4.40;99.90;;;;;;5050724;28;20476;-53
2023/04/07 07:27:57;;;;;;;17.10;12.38;;;4.60;99.90;;;;;;5050949;28;20040;-52
2023/04/07 07:30:23;;;;;;;21.90;11.45;;;4.70;99.90;;;;;;5050698;28;20024;-50
2023/04/07 07:32:50;;;;;;;20.63;12.95;;;4.80;99.90;;;;;;5051359;28;20048;-48
2023/04/07 07:35:16;;;;;;;18.65;11.48;;;5.00;99.90;;;;;;5050686;28;20017;-54
2023/04/07 07:37:43;;;;;;;19.13;12.25;;;5.20;99.90;;;;;;5051033;28;20052;-54
2023/04/07 07:40:09;;;;;;;20.98;12.45;;;5.40;98.80;;;;;;5050718;28;20036;-49
2023/04/07 07:42:35;;;;;;;18.77;11.68;;;5.60;99.50;;;;;;5050797;28;20036;-53
2023/04/07 07:45:00;;;;;;;23.65;12.00;;;5.80;98.80;;;;;;5048616;28;20037;-52
2023/04/07 07:47:26;;;;;;;13.07;10.15;;;6.00;98.30;;;;;;5049859;28;20456;-51
2023/04/07 07:49:52;;;;;;;17.10;11.32;;;6.20;98.10;;;;;;5050195;28;20666;-52
2023/04/07 07:52:19;;;;;;;15.63;11.07;;;6.30;97.60;;;;;;5051915;28;20082;-53
2023/04/07 07:54:45;;;;;;;18.73;11.70;;;6.60;97.00;;;;;;5054526;28;20025;-50
2023/04/07 07:57:11;;;;;;;17.33;11.90;;;6.70;96.70;;;;;;5054523;28;20029;-53
2023/04/07 07:59:39;;;;;;;15.45;11.25;;;6.90;95.30;;;;;;5054304;28;20046;-50
2023/04/07 08:02:06;;;;;;;17.15;11.75;;;7.10;96.60;;;;;;5054160;28;20029;-55
2023/04/07 08:04:31;;;;;;;16.80;10.68;;;7.20;97.00;;;;;;5052830;28;20036;-52
2023/04/07 08:06:57;;;;;;;13.70;10.13;;;7.50;95.70;;;;;;5053797;28;20032;-54
2023/04/07 08:09:23;;;;;;;16.67;11.02;;;7.60;95.70;;;;;;5054097;28;20108;-54
2023/04/07 08:11:49;;;;;;;13.32;10.40;;;7.80;94.60;;;;;;5051917;28;20036;-53
2023/04/07 08:14:16;;;;;;;14.85;10.57;;;8.00;95.70;;;;;;5053840;28;20106;-53
2023/04/07 08:16:42;;;;;;;15.18;10.02;;;8.20;96.10;;;;;;5054348;28;20032;-58
2023/04/07 08:19:07;;;;;;;12.68;9.98;;;8.20;94.60;;;;;;5054728;28;20104;-55
2023/04/07 08:21:33;;;;;;;12.23;9.45;;;8.50;95.10;;;;;;5054284;28;20127;-51
2023/04/07 08:23:59;;;;;;;13.18;9.15;;;8.70;95.00;;;;;;5053862;28;20025;-53
2023/04/07 08:26:25;;;;;;;14.95;10.20;;;8.70;92.20;;;;;;5054209;28;20044;-51
2023/04/07 08:28:52;;;;;;;15.82;10.10;;;8.80;92.40;;;;;;5053954;28;20500;-57
2023/04/07 08:31:18;;;;;;;11.77;8.27;;;9.20;92.70;;;;;;5054456;28;20117;-57
2023/04/07 08:33:44;;;;;;;9.93;8.68;;;9.30;92.90;;;;;;5054481;28;20052;-55
2023/04/07 08:36:10;;;;;;;12.98;9.88;;;9.30;91.10;;;;;;5054338;28;20029;-52
2023/04/07 08:38:35;;;;;;;11.93;8.65;;;9.40;91.70;;;;;;5054106;28;20506;-54
2023/04/07 08:41:10;;;;;;;15.73;7.78;;;9.50;90.40;;;;;;5053150;28;20074;-53
2023/04/07 08:43:38;;;;;;;11.63;8.35;;;9.50;90.80;;;;;;5054251;28;20052;-53
2023/04/07 08:46:04;;;;;;;9.38;7.93;;;9.40;91.10;;;;;;5053558;28;20032;-54
2023/04/07 08:48:33;;;;;;;12.23;7.60;;;9.60;91.50;;;;;;5053914;28;20602;-49
2023/04/07 08:51:05;;;;;;;11.05;8.73;;;9.80;89.30;;;;;;5053574;28;20112;-54
2023/04/07 08:53:39;;;;;;;16.33;9.05;;;9.80;85.50;;;;;;5053151;28;20021;-51
2023/04/07 08:56:06;;;;;;;90.07;34.80;;;10.20;86.60;;;;;;5053027;28;20017;-55
2023/04/07 08:58:32;;;;;;;13.27;10.80;;;10.10;85.80;;;;;;5053223;28;20025;-53
2023/04/07 09:00:58;;;;;;;13.05;9.05;;;10.20;86.20;;;;;;5054019;28;20074;-54
2023/04/07 09:03:25;;;;;;;9.27;7.50;;;10.70;84.80;;;;;;5052889;28;20458;-54
2023/04/07 09:05:51;;;;;;;13.23;8.20;;;10.90;83.40;;;;;;5053614;28;20025;-56
2023/04/07 09:08:17;;;;;;;12.65;8.70;;;10.90;82.80;;;;;;5053158;28;20028;-51
2023/04/07 09:10:44;;;;;;;12.07;9.18;;;10.80;78.80;;;;;;5053565;28;20024;-55
2023/04/07 09:13:10;;;;;;;12.35;8.95;;;10.50;80.30;;;;;;5053171;28;20091;-50
2023/04/07 09:15:36;;;;;;;16.00;8.80;;;10.80;80.50;;;;;;5053642;28;20049;-55
2023/04/07 09:18:01;;;;;;;9.27;8.00;;;11.00;79.90;;;;;;5052503;28;20036;-51
2023/04/07 09:20:27;;;;;;;14.02;8.63;;;11.50;76.30;;;;;;5053161;28;20044;-52
2023/04/07 09:22:53;;;;;;;10.65;8.82;;;11.50;75.10;;;;;;5047176;28;20018;-54
2023/04/07 09:25:28;;;;;;;13.57;9.93;;;11.70;72.40;;;;;;5032590;28;20034;-54
2023/04/07 09:27:59;;;;;;;13.27;9.30;;;11.70;73.60;;;;;;5031992;28;20033;-55
2023/04/07 09:30:25;;;;;;;13.48;10.00;;;11.90;73.60;;;;;;5033092;28;20021;-56
2023/04/07 09:32:51;;;;;;;13.98;8.88;;;11.80;75.10;;;;;;5032703;28;20464;-55
2023/04/07 09:35:17;;;;;;;10.27;7.90;;;11.90;73.50;;;;;;5051108;28;20052;-52
2023/04/07 09:37:43;;;;;;;12.40;8.90;;;12.00;71.70;;;;;;5053237;28;20021;-54
2023/04/07 09:40:09;;;;;;;12.20;8.70;;;11.80;72.20;;;;;;5052941;28;20083;-57
2023/04/07 09:42:44;;;;;;;13.73;9.10;;;12.10;77.20;;;;;;5053088;28;20030;-56
2023/04/07 09:45:10;;;;;;;15.07;8.95;;;12.10;71.40;;;;;;5053117;28;20025;-57
2023/04/07 09:47:38;;;;;;;15.05;9.15;;;12.40;73.10;;;;;;5052940;28;20353;-53
2023/04/07 09:50:05;;;;;;;15.40;10.90;;;12.80;69.00;;;;;;5053065;28;20024;-56
2023/04/07 09:52:51;;;;;;;17.20;10.38;;;12.40;67.00;;;;;;5053183;28;20013;-50
2023/04/07 09:55:21;;;;;;;16.27;9.43;;;12.90;66.30;;;;;;5052700;28;20044;-56
2023/04/07 09:57:52;;;;;;;10.43;8.48;;;13.00;63.60;;;;;;5052913;28;20112;-55
2023/04/07 10:00:18;;;;;;;10.73;8.80;;;13.30;64.10;;;;;;5047421;28;20021;-57
2023/04/07 10:02:44;;;;;;;15.13;10.05;;;13.70;70.00;;;;;;5032514;28;20037;-57
2023/04/07 10:05:10;;;;;;;12.18;8.75;;;13.50;59.50;;;;;;5032044;28;20029;-56
2023/04/07 10:07:36;;;;;;;19.88;11.63;;;13.90;58.80;;;;;;5032249;28;20022;-56
2023/04/07 10:10:03;;;;;;;13.18;9.40;;;14.00;57.60;;;;;;5032066;28;20022;-57
2023/04/07 10:12:30;;;;;;;12.98;9.52;;;14.20;58.20;;;;;;5032381;28;20033;-55
2023/04/07 10:14:59;;;;;;;12.85;9.40;;;14.70;59.90;;;;;;5032192;28;20463;-54
2023/04/07 10:17:27;;;;;;;11.45;9.45;;;14.80;60.30;;;;;;5032537;28;20017;-55
2023/04/07 10:19:57;;;;;;;11.00;9.45;;;15.40;59.90;;;;;;5032605;28;20050;-52
2023/04/07 10:22:25;;;;;;;11.90;8.48;;;15.00;54.20;;;;;;5032685;28;20049;-56
2023/04/07 10:25:02;;;;;;;13.25;9.93;;;15.20;54.50;;;;;;5032612;28;20021;-54
2023/04/07 10:27:32;;;;;;;15.23;9.40;;;15.60;55.90;;;;;;5032193;28;20021;-53
2023/04/07 10:30:00;;;;;;;10.35;8.30;;;15.70;54.00;;;;;;5032175;28;20017;-56
2023/04/07 10:32:26;;;;;;;11.07;8.35;;;15.30;54.80;;;;;;5032390;28;20014;-55
2023/04/07 10:34:54;;;;;;;12.50;8.82;;;15.10;53.80;;;;;;5032249;28;20025;-53
2023/04/07 10:37:21;;;;;;;16.00;10.40;;;15.20;56.00;;;;;;5032151;28;20109;-52
2023/04/07 10:39:48;;;;;;;14.82;8.70;;;14.30;54.10;;;;;;5031852;28;20025;-57
2023/04/07 10:42:38;;;;;;;11.23;8.32;;;14.00;56.10;;;;;;5031854;28;20530;-52
2023/04/07 10:45:08;;;;;;;11.68;8.48;;;13.70;56.20;;;;;;5031738;28;20459;-56
2023/04/07 10:47:37;;;;;;;14.55;9.25;;;13.30;55.80;;;;;;5031837;28;20020;-53
2023/04/07 10:50:20;;;;;;;19.17;10.95;;;13.30;59.70;;;;;;5031900;28;20021;-52
2023/04/07 10:52:48;;;;;;;15.50;9.52;;;13.30;56.00;;;;;;5031921;28;20370;-57
2023/04/07 10:55:37;;;;;;;11.48;8.55;;;13.30;56.70;;;;;;5031432;28;20056;-55
2023/04/07 10:58:29;;;;;;;19.88;9.63;;;13.60;55.90;;;;;;5031407;28;20026;-55
2023/04/07 11:01:07;;;;;;;26.05;17.80;;;13.40;55.30;;;;;;5031365;28;20028;-57
2023/04/07 11:03:41;;;;;;;16.75;10.48;;;13.20;56.10;;;;;;5031489;28;20088;-50
2023/04/07 11:06:10;;;;;;;12.45;9.85;;;13.60;55.30;;;;;;5030995;28;20017;-54
2023/04/07 11:08:40;;;;;;;11.65;8.55;;;13.30;55.10;;;;;;5031235;28;20105;-55
2023/04/07 11:11:56;;;;;;;19.55;8.52;;;13.40;56.10;;;;;;5031069;28;20483;-54
2023/04/07 11:14:29;;;;;;;10.43;8.35;;;13.60;54.30;;;;;;5031620;28;20045;-58
2023/04/07 11:16:55;;;;;;;11.00;9.07;;;14.90;53.50;;;;;;5031521;28;20360;-55
2023/04/07 11:19:22;;;;;;;16.20;8.10;;;16.00;53.40;;;;;;5031440;28;20037;-54
2023/04/07 11:21:47;;;;;;;9.70;7.80;;;17.60;49.80;;;;;;5031470;28;20021;-58
2023/04/07 11:24:32;;;;;;;11.45;7.97;;;18.80;48.40;;;;;;5030593;28;20070;-57
2023/04/07 11:27:14;;;;;;;10.63;8.20;;;19.80;46.50;;;;;;5030282;28;20025;-54
2023/04/07 11:29:40;;;;;;;9.95;8.68;;;20.50;43.90;;;;;;5031049;28;20067;-55
2023/04/07 11:32:05;;;;;;;11.77;7.53;;;20.90;41.80;;;;;;5030786;28;20049;-56
2023/04/07 11:34:33;;;;;;;9.25;7.68;;;21.20;41.20;;;;;;5031013;28;20580;-58
2023/04/07 11:37:27;;;;;;;12.13;8.77;;;22.10;38.50;;;;;;5031079;28;20060;-58
2023/04/07 11:39:54;;;;;;;18.73;8.23;;;22.30;38.80;;;;;;5031462;28;20072;-57
2023/04/07 11:42:38;;;;;;;8.63;7.07;;;21.30;38.20;;;;;;5030937;28;20462;-57
2023/04/07 11:45:04;;;;;;;11.00;6.63;;;21.10;37.70;;;;;;5039394;28;20021;-57
2023/04/07 11:47:38;;;;;;;11.88;7.55;;;20.70;37.70;;;;;;5047402;28;20503;-57
2023/04/07 11:50:04;;;;;;;17.42;7.40;;;19.30;38.60;;;;;;5041885;28;20025;-55
2023/04/07 11:52:46;;;;;;;18.50;7.72;;;18.20;41.90;;;;;;5030930;28;20036;-54
2023/04/07 11:55:23;;;;;;;8.02;7.00;;;17.80;42.10;;;;;;5039906;28;20029;-54
2023/04/07 11:57:50;;;;;;;14.18;8.38;;;17.70;43.20;;;;;;5035795;28;20504;-57
2023/04/07 12:00:17;;;;;;;13.95;7.47;;;17.60;43.50;;;;;;5031061;28;20471;-52
2023/04/07 12:02:43;;;;;;;9.23;8.18;;;18.40;41.90;;;;;;5030364;28;20024;-58
2023/04/07 12:05:09;;;;;;;14.35;7.68;;;18.90;40.60;;;;;;5033467;28;20021;-57
2023/04/07 12:07:40;;;;;;;11.00;7.68;;;18.90;40.70;;;;;;5035725;28;20049;-57
2023/04/07 12:10:19;;;;;;;7.72;6.57;;;19.50;41.10;;;;;;5030715;28;20030;-56
2023/04/07 12:12:45;;;;;;;8.05;7.03;;;19.60;40.70;;;;;;5029756;28;20049;-51
2023/04/07 12:15:12;;;;;;;13.77;7.28;;;19.20;40.20;;;;;;5043024;28;20029;-53
2023/04/07 12:17:43;;;;;;;11.00;7.30;;;17.80;40.40;;;;;;5050151;28;20028;-54
2023/04/07 12:20:09;;;;;;;9.52;7.43;;;16.90;43.80;;;;;;5032211;28;20026;-55
2023/04/07 12:22:34;;;;;;;8.38;7.50;;;16.50;44.50;;;;;;5030679;28;20025;-52
2023/04/07 12:25:00;;;;;;;15.10;9.07;;;16.00;46.40;;;;;;5041217;28;20029;-55
2023/04/07 12:27:26;;;;;;;15.07;8.82;;;15.10;46.00;;;;;;5050478;28;20400;-56
2023/04/07 12:29:52;;;;;;;12.93;10.50;;;14.90;48.10;;;;;;5050256;28;20017;-52
2023/04/07 12:32:18;;;;;;;32.60;19.50;;;15.20;49.60;;;;;;5050170;28;20027;-54
2023/04/07 12:34:43;;;;;;;65.55;37.15;;;15.30;50.00;;;;;;5050459;28;20025;-56